Time;durP1;ratioP1;P1;durP2;ratioP2;P2;SDS_P1;SDS_P2;PMS_P1;PMS_P2;Temp;Humidity;BMP_temperature;BMP_pressure;BME280_temperature;BME280_humidity;BME280_pressure;Samples;Min_cycle;Max_cycle;Signal;HPM_P1;HPM_P2
2023/08/22 00:01:28;;;;;;;13.53;9.23;;;22.40;99.90;;;;;;5089895;28;20438;-67
2023/08/22 00:03:56;;;;;;;16.20;9.90;;;22.50;99.90;;;;;;5087542;28;21170;-66
2023/08/22 00:06:25;;;;;;;14.50;9.20;;;22.50;99.90;;;;;;5087538;28;20497;-67
2023/08/22 00:08:53;;;;;;;13.93;9.37;;;22.40;99.90;;;;;;5087034;28;20525;-67
2023/08/22 00:11:21;;;;;;;17.00;10.13;;;22.40;99.90;;;;;;5075151;28;20454;-67
2023/08/22 00:13:49;;;;;;;15.57;9.33;;;22.40;99.90;;;;;;5085178;28;20531;-67
2023/08/22 00:16:18;;;;;;;15.80;11.17;;;22.30;99.90;;;;;;5086990;28;20555;-67
2023/08/22 00:18:46;;;;;;;17.33;10.80;;;22.20;99.90;;;;;;5088563;28;20512;-68
2023/08/22 00:21:14;;;;;;;13.70;9.67;;;22.20;99.90;;;;;;5089395;28;20442;-66
2023/08/22 00:23:42;;;;;;;14.53;10.20;;;22.10;99.90;;;;;;5087595;28;20442;-66
2023/08/22 00:26:10;;;;;;;14.40;9.57;;;22.10;99.90;;;;;;5089181;28;20458;-67
2023/08/22 00:28:38;;;;;;;14.13;9.93;;;22.00;99.90;;;;;;5089128;28;20442;-67
2023/08/22 00:31:06;;;;;;;14.87;10.70;;;22.00;99.90;;;;;;5088983;28;20446;-67
2023/08/22 00:33:35;;;;;;;15.13;10.43;;;22.00;99.90;;;;;;5087640;28;20446;-67
2023/08/22 00:36:03;;;;;;;15.10;10.83;;;21.90;99.90;;;;;;5087164;28;20480;-67
2023/08/22 00:38:31;;;;;;;16.87;10.80;;;21.80;99.90;;;;;;5088980;28;20458;-68
2023/08/22 00:40:59;;;;;;;18.93;10.73;;;21.90;99.90;;;;;;5089327;28;20538;-67
2023/08/22 00:43:27;;;;;;;15.90;10.70;;;21.90;99.90;;;;;;5087697;28;20521;-67
2023/08/22 00:45:55;;;;;;;14.07;10.10;;;21.80;99.90;;;;;;5089616;28;20454;-68
2023/08/22 00:48:23;;;;;;;15.07;9.70;;;21.90;99.90;;;;;;5089476;28;20864;-68
2023/08/22 00:50:52;;;;;;;14.47;9.97;;;21.90;99.90;;;;;;5089763;28;20530;-68
2023/08/22 00:53:21;;;;;;;15.00;10.70;;;21.90;99.90;;;;;;5090026;28;21009;-68
2023/08/22 00:55:49;;;;;;;21.57;10.63;;;21.80;99.90;;;;;;5089960;28;20569;-67
2023/08/22 00:58:16;;;;;;;14.10;10.00;;;21.80;99.90;;;;;;5091371;28;20496;-68
2023/08/22 01:00:45;;;;;;;14.80;10.03;;;21.80;99.90;;;;;;5090818;28;20446;-68
2023/08/22 01:03:13;;;;;;;17.93;11.17;;;21.70;99.90;;;;;;5089979;28;20444;-68
2023/08/22 01:05:50;;;;;;;15.30;11.10;;;21.70;99.90;;;;;;5091104;28;20535;-68
2023/08/22 01:08:26;;;;;;;16.33;11.13;;;21.70;99.90;;;;;;5091254;28;20898;-68
2023/08/22 01:10:56;;;;;;;17.53;11.17;;;21.60;99.90;;;;;;5091001;28;20469;-68
2023/08/22 01:13:31;;;;;;;16.17;11.57;;;21.50;99.90;;;;;;5090672;28;20438;-68
2023/08/22 01:15:59;;;;;;;15.47;10.10;;;21.50;99.90;;;;;;5090601;28;21280;-68
2023/08/22 01:18:28;;;;;;;15.43;10.40;;;21.50;99.90;;;;;;5090489;28;20446;-68
2023/08/22 01:20:58;;;;;;;17.77;10.20;;;21.50;99.90;;;;;;5090988;28;20815;-68
2023/08/22 01:23:28;;;;;;;16.77;10.43;;;21.40;99.90;;;;;;5090201;28;20925;-66
2023/08/22 01:25:56;;;;;;;18.00;10.60;;;21.50;99.90;;;;;;5090532;28;20490;-68
2023/08/22 01:28:32;;;;;;;17.70;10.67;;;21.50;99.90;;;;;;5090524;28;20485;-67
2023/08/22 01:31:05;;;;;;;14.80;10.30;;;21.60;99.90;;;;;;5090899;28;20495;-67
2023/08/22 01:33:36;;;;;;;17.10;12.17;;;21.50;99.90;;;;;;5089756;28;20545;-68
2023/08/22 01:36:08;;;;;;;16.07;10.13;;;21.40;99.90;;;;;;5090199;28;20478;-66
2023/08/22 01:38:40;;;;;;;15.67;11.23;;;21.50;99.90;;;;;;5090681;28;20470;-65
2023/08/22 01:41:08;;;;;;;16.80;11.47;;;21.30;99.90;;;;;;5090734;28;20479;-68
2023/08/22 01:43:37;;;;;;;18.77;11.40;;;21.20;99.90;;;;;;5090135;28;20562;-67
2023/08/22 01:46:07;;;;;;;14.70;9.80;;;21.20;99.90;;;;;;5090034;28;20473;-65
2023/08/22 01:48:35;;;;;;;13.47;9.30;;;21.30;99.90;;;;;;5090137;28;20446;-67
2023/08/22 01:51:03;;;;;;;13.93;10.23;;;21.30;99.90;;;;;;5090099;28;20446;-68
2023/08/22 01:53:31;;;;;;;13.27;9.50;;;21.20;99.90;;;;;;5090083;28;20560;-68
2023/08/22 01:56:01;;;;;;;15.60;10.03;;;21.10;99.90;;;;;;5089856;28;20522;-68
2023/08/22 01:58:29;;;;;;;16.50;10.80;;;21.20;99.90;;;;;;5090146;28;20525;-68
2023/08/22 02:00:57;;;;;;;14.57;9.73;;;21.00;99.90;;;;;;5089976;28;20874;-66
2023/08/22 02:03:26;;;;;;;14.40;11.30;;;21.10;99.90;;;;;;5089506;28;20492;-68
2023/08/22 02:05:55;;;;;;;18.63;13.07;;;21.00;99.90;;;;;;5089805;28;20466;-67
2023/08/22 02:08:23;;;;;;;16.47;12.63;;;21.00;99.90;;;;;;5089547;28;20460;-68
2023/08/22 02:10:50;;;;;;;15.53;11.73;;;21.00;99.90;;;;;;5090359;28;20492;-68
2023/08/22 02:13:20;;;;;;;18.33;12.40;;;21.00;99.90;;;;;;5089552;28;20438;-68
2023/08/22 02:15:48;;;;;;;15.80;11.80;;;21.00;99.90;;;;;;5084956;28;20572;-68
2023/08/22 02:18:16;;;;;;;14.10;10.03;;;21.10;99.90;;;;;;5089771;28;20447;-68
2023/08/22 02:20:44;;;;;;;14.20;10.57;;;21.00;99.90;;;;;;5088863;28;20442;-68
2023/08/22 02:23:12;;;;;;;15.37;10.67;;;20.90;99.90;;;;;;5089526;28;20427;-68
2023/08/22 02:25:40;;;;;;;17.33;11.13;;;20.90;99.90;;;;;;5089599;28;20466;-67
2023/08/22 02:28:08;;;;;;;16.17;11.53;;;20.90;99.90;;;;;;5089734;28;20474;-67
2023/08/22 02:30:38;;;;;;;16.10;11.63;;;20.80;99.90;;;;;;5089753;28;20863;-68
2023/08/22 02:33:06;;;;;;;16.50;11.60;;;20.90;99.90;;;;;;5089255;28;20434;-67
2023/08/22 02:35:34;;;;;;;15.93;10.87;;;20.90;99.90;;;;;;5089571;28;20466;-67
2023/08/22 02:38:02;;;;;;;16.03;11.30;;;20.80;99.90;;;;;;5089198;28;20450;-68
2023/08/22 02:40:31;;;;;;;16.00;11.47;;;20.80;99.90;;;;;;5089886;28;20887;-68
2023/08/22 02:42:59;;;;;;;24.23;11.97;;;20.80;99.90;;;;;;5089289;28;20861;-68
2023/08/22 02:45:27;;;;;;;19.03;11.53;;;20.80;99.90;;;;;;5089551;28;20874;-68
2023/08/22 02:47:56;;;;;;;16.70;11.60;;;20.80;99.90;;;;;;5089836;28;20466;-68
2023/08/22 02:50:24;;;;;;;16.77;11.37;;;21.00;99.90;;;;;;5089870;28;20447;-66
2023/08/22 02:52:52;;;;;;;17.40;10.20;;;21.10;99.90;;;;;;5089235;28;20959;-67
2023/08/22 02:55:20;;;;;;;16.13;10.00;;;21.20;99.90;;;;;;5089158;28;20438;-67
2023/08/22 02:57:48;;;;;;;19.07;11.50;;;21.10;99.90;;;;;;5089706;28;20477;-67
2023/08/22 03:00:18;;;;;;;20.13;11.30;;;21.00;99.90;;;;;;5089477;28;20442;-68
2023/08/22 03:02:46;;;;;;;16.40;11.37;;;20.90;99.90;;;;;;5089608;28;20438;-68
2023/08/22 03:05:15;;;;;;;18.27;11.53;;;20.90;99.90;;;;;;5089432;28;20449;-68
2023/08/22 03:07:43;;;;;;;15.83;10.07;;;20.90;99.90;;;;;;5089846;28;20434;-67
2023/08/22 03:10:12;;;;;;;16.30;12.07;;;20.90;99.90;;;;;;5084562;28;20901;-68
2023/08/22 03:12:40;;;;;;;16.50;11.20;;;20.90;99.90;;;;;;5086892;28;20473;-68
2023/08/22 03:15:08;;;;;;;17.70;12.07;;;20.90;99.90;;;;;;5087277;28;20501;-67
2023/08/22 03:17:36;;;;;;;16.77;11.17;;;20.90;99.90;;;;;;5087491;28;20509;-67
2023/08/22 03:20:06;;;;;;;14.70;11.37;;;20.90;99.90;;;;;;5089442;28;20446;-67
2023/08/22 03:22:35;;;;;;;17.17;12.03;;;20.80;99.90;;;;;;5088916;28;20539;-67
2023/08/22 03:25:03;;;;;;;16.70;11.70;;;20.80;99.90;;;;;;5086552;28;20520;-68
2023/08/22 03:27:31;;;;;;;16.97;10.83;;;20.70;99.90;;;;;;5087176;28;20437;-67
2023/08/22 03:29:59;;;;;;;14.20;10.57;;;20.70;99.90;;;;;;5086956;28;20442;-68
2023/08/22 03:32:27;;;;;;;17.10;11.63;;;20.60;99.90;;;;;;5089478;28;20477;-68
2023/08/22 03:34:55;;;;;;;19.50;13.03;;;20.70;99.90;;;;;;5092535;28;20478;-67
2023/08/22 03:37:23;;;;;;;16.93;11.50;;;20.80;99.90;;;;;;5092653;28;20488;-68
2023/08/22 03:39:52;;;;;;;16.10;12.37;;;20.70;99.90;;;;;;5092661;28;20442;-68
2023/08/22 03:42:20;;;;;;;14.77;10.93;;;20.70;99.90;;;;;;5092440;28;20446;-67
2023/08/22 03:44:48;;;;;;;17.87;12.40;;;20.60;99.90;;;;;;5092502;28;20477;-67
2023/08/22 03:47:16;;;;;;;17.27;10.90;;;20.60;99.90;;;;;;5092369;28;20987;-67
2023/08/22 03:49:44;;;;;;;16.40;11.60;;;20.50;99.90;;;;;;5092716;28;20883;-68
2023/08/22 03:52:12;;;;;;;20.17;11.83;;;20.50;99.90;;;;;;5092415;28;20516;-68
2023/08/22 03:54:40;;;;;;;18.33;12.33;;;20.40;99.90;;;;;;5092263;28;20445;-67
2023/08/22 03:57:09;;;;;;;15.40;11.17;;;20.50;99.90;;;;;;5092237;28;20469;-68
2023/08/22 03:59:37;;;;;;;16.40;11.57;;;20.40;99.90;;;;;;5092572;28;20438;-68
2023/08/22 04:02:05;;;;;;;17.93;12.20;;;20.30;99.90;;;;;;5092277;28;20473;-66
2023/08/22 04:04:33;;;;;;;15.43;11.00;;;20.30;99.90;;;;;;5091516;28;20970;-68
2023/08/22 04:07:01;;;;;;;16.97;12.20;;;20.30;99.90;;;;;;5092143;28;20454;-67
2023/08/22 04:09:29;;;;;;;18.07;12.30;;;20.30;99.90;;;;;;5092191;28;20458;-68
2023/08/22 04:12:00;;;;;;;18.47;12.10;;;20.20;99.90;;;;;;5091829;28;20446;-67
2023/08/22 04:14:29;;;;;;;15.87;10.93;;;20.20;99.90;;;;;;5091710;28;20445;-68
2023/08/22 04:16:57;;;;;;;17.23;11.93;;;20.30;99.90;;;;;;5091706;28;20485;-68
2023/08/22 04:19:25;;;;;;;17.83;11.97;;;20.20;99.90;;;;;;5091850;28;20449;-67
2023/08/22 04:21:53;;;;;;;17.47;10.47;;;20.20;99.90;;;;;;5091264;28;20442;-68
2023/08/22 04:24:21;;;;;;;16.73;11.20;;;20.10;99.90;;;;;;5091807;28;20439;-68
2023/08/22 04:26:51;;;;;;;16.03;11.73;;;20.10;99.90;;;;;;5091680;28;20469;-68
2023/08/22 04:29:20;;;;;;;16.60;12.63;;;20.20;99.90;;;;;;5091996;28;20450;-67
2023/08/22 04:31:49;;;;;;;16.57;11.23;;;20.20;99.90;;;;;;5092020;28;20445;-67
2023/08/22 04:34:17;;;;;;;17.60;12.30;;;20.10;99.90;;;;;;5088927;28;20442;-68
2023/08/22 04:36:45;;;;;;;17.00;11.33;;;20.00;99.90;;;;;;5089136;28;20995;-68
2023/08/22 04:39:13;;;;;;;17.27;12.00;;;20.10;99.90;;;;;;5089541;28;20521;-68
2023/08/22 04:41:41;;;;;;;17.97;10.70;;;20.10;99.90;;;;;;5087519;28;20813;-67
2023/08/22 04:44:09;;;;;;;14.10;10.73;;;20.10;99.90;;;;;;5091215;28;20491;-68
2023/08/22 04:46:37;;;;;;;17.67;11.33;;;20.10;99.90;;;;;;5091188;28;20521;-68
2023/08/22 04:49:06;;;;;;;15.43;10.67;;;20.20;99.90;;;;;;5087505;28;20435;-68
2023/08/22 04:51:34;;;;;;;16.60;11.60;;;20.20;99.90;;;;;;5091367;28;20485;-66
2023/08/22 04:54:02;;;;;;;17.60;10.40;;;20.30;99.90;;;;;;5090822;28;20940;-68
2023/08/22 04:56:30;;;;;;;15.50;10.57;;;20.30;99.90;;;;;;5091247;28;20462;-67
2023/08/22 04:58:58;;;;;;;15.93;10.33;;;20.30;99.90;;;;;;5091815;28;20834;-68
2023/08/22 05:01:26;;;;;;;16.03;11.73;;;20.30;99.90;;;;;;5091559;28;20477;-66
2023/08/22 05:03:54;;;;;;;18.73;11.10;;;20.40;99.90;;;;;;5090826;28;20503;-68
2023/08/22 05:06:23;;;;;;;16.10;11.43;;;20.50;99.90;;;;;;5091298;28;20485;-67
2023/08/22 05:08:52;;;;;;;19.30;12.87;;;20.60;99.90;;;;;;5091214;28;20479;-69
2023/08/22 05:11:20;;;;;;;17.20;11.77;;;20.60;99.90;;;;;;5091456;28;20511;-68
2023/08/22 05:13:48;;;;;;;16.50;9.97;;;20.60;99.90;;;;;;5091183;28;20438;-68
2023/08/22 05:16:16;;;;;;;14.40;9.60;;;20.60;99.90;;;;;;5091433;28;20462;-67
2023/08/22 05:18:44;;;;;;;15.50;10.33;;;20.60;99.90;;;;;;5091188;28;20470;-68
2023/08/22 05:21:11;;;;;;;15.23;9.97;;;20.60;99.90;;;;;;5070682;28;20879;-68
2023/08/22 05:23:41;;;;;;;15.77;10.93;;;20.50;99.90;;;;;;5070752;28;20501;-68
2023/08/22 05:26:09;;;;;;;14.77;10.97;;;20.50;99.90;;;;;;5070309;28;20459;-67
2023/08/22 05:28:37;;;;;;;20.67;10.97;;;20.50;99.90;;;;;;5090097;28;20468;-68
2023/08/22 05:31:05;;;;;;;15.73;10.73;;;20.50;99.90;;;;;;5091006;28;20488;-67
2023/08/22 05:33:33;;;;;;;17.63;10.00;;;20.60;99.90;;;;;;5090453;28;20822;-68
2023/08/22 05:36:01;;;;;;;14.60;10.27;;;20.60;99.90;;;;;;5090701;28;20466;-67
2023/08/22 05:38:29;;;;;;;14.47;11.00;;;20.70;99.90;;;;;;5090365;28;20474;-65
2023/08/22 05:40:58;;;;;;;15.10;10.67;;;20.70;99.90;;;;;;5089409;28;20447;-68
2023/08/22 05:43:26;;;;;;;16.63;10.93;;;20.70;99.90;;;;;;5089134;28;20454;-68
2023/08/22 05:45:54;;;;;;;19.57;12.40;;;20.70;99.90;;;;;;5080006;28;20947;-68
2023/08/22 05:48:22;;;;;;;15.97;11.77;;;20.80;99.90;;;;;;5070129;28;20474;-67
2023/08/22 05:50:50;;;;;;;15.53;11.20;;;20.90;99.90;;;;;;5079030;28;20450;-67
2023/08/22 05:53:18;;;;;;;16.03;11.37;;;21.00;99.90;;;;;;5090191;28;20492;-69
2023/08/22 05:55:46;;;;;;;17.50;11.83;;;21.10;99.90;;;;;;5089478;28;20470;-68
2023/08/22 05:58:15;;;;;;;15.90;11.50;;;21.10;99.90;;;;;;5090300;28;20484;-67
2023/08/22 06:00:44;;;;;;;18.83;12.63;;;21.10;99.90;;;;;;5090047;28;20442;-68
2023/08/22 06:03:12;;;;;;;17.57;12.80;;;21.30;99.90;;;;;;5090307;28;20438;-67
2023/08/22 06:05:40;;;;;;;18.30;13.37;;;21.40;99.90;;;;;;5089953;28;20531;-68
2023/08/22 06:08:08;;;;;;;20.43;13.27;;;21.50;99.90;;;;;;5089751;28;20524;-67
2023/08/22 06:10:36;;;;;;;22.17;14.20;;;21.60;99.90;;;;;;5090149;28;20450;-67
2023/08/22 06:13:04;;;;;;;20.27;13.37;;;21.60;99.90;;;;;;5089654;28;20503;-67
2023/08/22 06:15:34;;;;;;;17.33;12.73;;;21.80;99.90;;;;;;5090023;28;20462;-68
2023/08/22 06:18:02;;;;;;;18.17;13.33;;;21.90;99.90;;;;;;5089760;28;20478;-68
2023/08/22 06:20:30;;;;;;;19.23;13.13;;;21.90;99.90;;;;;;5089991;28;20533;-68
2023/08/22 06:22:58;;;;;;;22.03;13.27;;;22.10;99.90;;;;;;5089636;28;20474;-67
2023/08/22 06:25:27;;;;;;;17.60;13.77;;;22.30;99.90;;;;;;5089518;28;20496;-68
2023/08/22 06:27:55;;;;;;;18.20;12.07;;;22.30;99.90;;;;;;5089948;28;20445;-68
2023/08/22 06:30:23;;;;;;;18.13;13.30;;;22.50;99.90;;;;;;5089706;28;20478;-68
2023/08/22 06:32:52;;;;;;;17.23;13.43;;;22.60;99.90;;;;;;5089549;28;20955;-68
2023/08/22 06:35:20;;;;;;;21.50;13.60;;;22.70;99.90;;;;;;5089749;28;20454;-68
2023/08/22 06:37:50;;;;;;;19.13;13.13;;;22.80;99.90;;;;;;5089215;28;20442;-68
2023/08/22 06:40:18;;;;;;;18.37;13.57;;;22.80;99.90;;;;;;5089621;28;20478;-68
2023/08/22 06:42:46;;;;;;;18.30;12.93;;;22.90;99.90;;;;;;5089309;28;20434;-68
2023/08/22 06:45:14;;;;;;;16.23;12.27;;;23.00;99.90;;;;;;5089706;28;20495;-68
2023/08/22 06:47:42;;;;;;;19.23;13.73;;;23.10;99.90;;;;;;5089707;28;20442;-68
2023/08/22 06:50:12;;;;;;;16.37;12.83;;;23.20;99.90;;;;;;5089907;28;20434;-68
2023/08/22 06:52:40;;;;;;;18.97;14.20;;;23.20;99.90;;;;;;5089253;28;20438;-68
2023/08/22 06:55:08;;;;;;;18.90;13.23;;;23.40;99.90;;;;;;5089139;28;20452;-68
2023/08/22 06:57:36;;;;;;;15.60;12.40;;;23.60;99.90;;;;;;5089789;28;20438;-66
2023/08/22 07:00:13;;;;;;;24.37;13.80;;;23.70;99.90;;;;;;5089530;28;20924;-68
2023/08/22 07:02:41;;;;;;;20.07;12.37;;;24.00;99.90;;;;;;5089113;28;20438;-68
2023/08/22 07:05:12;;;;;;;19.70;13.00;;;24.20;99.90;;;;;;5089036;28;20843;-67
2023/08/22 07:07:40;;;;;;;18.70;12.03;;;24.30;99.90;;;;;;5092038;28;20484;-68
2023/08/22 07:10:14;;;;;;;17.60;11.80;;;24.40;99.90;;;;;;5093332;28;20537;-68
2023/08/22 07:12:45;;;;;;;18.23;11.83;;;24.40;99.90;;;;;;5093106;28;20453;-67
2023/08/22 07:15:13;;;;;;;18.43;11.93;;;24.40;99.90;;;;;;5093529;28;20441;-66
2023/08/22 07:17:41;;;;;;;19.13;12.13;;;24.60;99.90;;;;;;5093379;28;20438;-66
2023/08/22 07:20:13;;;;;;;15.47;11.10;;;24.70;99.90;;;;;;5093885;28;20470;-66
2023/08/22 07:22:42;;;;;;;16.83;11.50;;;24.80;99.90;;;;;;5093289;28;20441;-66
2023/08/22 07:25:10;;;;;;;16.30;11.97;;;24.90;99.90;;;;;;5093499;28;20438;-67
2023/08/22 07:27:39;;;;;;;15.40;10.53;;;25.00;99.90;;;;;;5092848;28;20994;-65
2023/08/22 07:30:08;;;;;;;18.10;11.00;;;25.10;99.90;;;;;;5092992;28;20439;-65
2023/08/22 07:32:38;;;;;;;15.20;9.70;;;25.20;99.90;;;;;;5092839;28;20445;-65
2023/08/22 07:35:08;;;;;;;14.90;10.17;;;25.30;99.90;;;;;;5092956;28;20460;-65
2023/08/22 07:37:37;;;;;;;16.07;9.03;;;25.60;99.90;;;;;;5091674;28;20474;-66
2023/08/22 07:40:06;;;;;;;13.27;8.50;;;25.80;99.90;;;;;;5087532;28;20485;-66
2023/08/22 07:42:35;;;;;;;14.40;8.83;;;25.90;99.90;;;;;;5081904;28;20496;-66
2023/08/22 07:45:04;;;;;;;12.17;8.00;;;25.90;99.90;;;;;;5089051;28;20999;-66
2023/08/22 07:47:32;;;;;;;14.27;8.43;;;26.00;99.90;;;;;;5090959;28;20942;-67
2023/08/22 07:50:00;;;;;;;14.00;9.30;;;26.10;99.90;;;;;;5087864;28;20437;-67
2023/08/22 07:52:28;;;;;;;15.00;9.43;;;26.10;99.90;;;;;;5090418;28;20442;-67
2023/08/22 07:54:57;;;;;;;18.30;9.07;;;26.10;99.90;;;;;;5090751;28;20537;-66
2023/08/22 07:57:25;;;;;;;16.17;8.90;;;26.30;99.90;;;;;;5090445;28;21260;-67
2023/08/22 07:59:54;;;;;;;14.13;9.00;;;26.40;99.90;;;;;;5090581;28;20531;-66
2023/08/22 08:02:22;;;;;;;15.02;10.00;;;26.50;99.90;;;;;;5089965;28;20428;-66
2023/08/22 08:04:50;;;;;;;16.93;8.43;;;26.50;99.90;;;;;;5090251;28;20211;-67
2023/08/22 08:07:18;;;;;;;11.77;8.23;;;26.50;99.90;;;;;;5090748;28;20523;-67
2023/08/22 08:09:46;;;;;;;12.20;8.00;;;26.80;99.90;;;;;;5090597;28;20503;-66
2023/08/22 08:12:15;;;;;;;12.17;7.20;;;26.90;99.90;;;;;;5090433;28;21267;-67
2023/08/22 08:14:43;;;;;;;10.97;7.07;;;27.00;99.90;;;;;;5090330;28;20435;-73
2023/08/22 08:17:11;;;;;;;11.60;7.07;;;27.20;99.90;;;;;;5088865;28;20979;-69
2023/08/22 08:19:39;;;;;;;12.90;7.20;;;27.20;99.90;;;;;;5089830;28;20503;-71
2023/08/22 08:22:07;;;;;;;15.20;8.00;;;27.30;99.90;;;;;;5089958;28;20446;-68
2023/08/22 08:24:35;;;;;;;13.80;6.93;;;27.30;99.90;;;;;;5089790;28;20438;-67
2023/08/22 08:27:03;;;;;;;13.93;7.27;;;27.50;99.90;;;;;;5090109;28;20453;-66
2023/08/22 08:29:32;;;;;;;11.27;6.13;;;27.50;99.90;;;;;;5090168;28;20489;-68
2023/08/22 08:32:01;;;;;;;11.67;6.67;;;27.70;99.90;;;;;;5090419;28;20438;-68
2023/08/22 08:34:29;;;;;;;10.70;7.33;;;27.80;99.90;;;;;;5089651;28;20438;-69
2023/08/22 08:36:57;;;;;;;11.33;7.00;;;27.90;99.90;;;;;;5089601;28;20470;-67
2023/08/22 08:39:25;;;;;;;11.53;7.40;;;27.90;99.90;;;;;;5088755;28;20474;-68
2023/08/22 08:42:02;;;;;;;13.10;7.17;;;27.90;99.90;;;;;;5089888;28;20442;-67
2023/08/22 08:44:35;;;;;;;10.30;6.70;;;28.00;99.90;;;;;;5089657;28;20495;-67
2023/08/22 08:47:04;;;;;;;12.63;7.50;;;28.10;99.90;;;;;;5089502;28;20873;-69
2023/08/22 08:49:33;;;;;;;11.97;6.70;;;28.10;99.90;;;;;;5083371;28;20949;-68
2023/08/22 08:52:05;;;;;;;11.60;6.40;;;28.20;99.90;;;;;;5083330;28;21168;-69
2023/08/22 08:54:34;;;;;;;11.00;6.17;;;28.50;99.90;;;;;;5088086;28;20503;-68
2023/08/22 08:57:03;;;;;;;10.80;6.30;;;28.60;99.90;;;;;;5084905;28;20474;-68
2023/08/22 08:59:32;;;;;;;12.53;6.00;;;28.70;99.90;;;;;;5086929;28;20611;-68
2023/08/22 09:02:03;;;;;;;10.40;5.77;;;28.60;99.90;;;;;;5081545;28;20930;-69
2023/08/22 09:04:32;;;;;;;10.53;5.60;;;28.70;99.90;;;;;;5082644;28;20437;-67
2023/08/22 09:07:00;;;;;;;12.93;5.23;;;28.80;99.90;;;;;;5085153;28;20493;-67
2023/08/22 09:09:34;;;;;;;9.30;5.00;;;28.80;99.90;;;;;;5087999;28;20506;-67
2023/08/22 09:12:06;;;;;;;11.50;5.50;;;28.90;99.90;;;;;;5087663;28;21258;-68
2023/08/22 09:14:34;;;;;;;11.80;4.80;;;29.00;99.90;;;;;;5083645;28;20480;-67
2023/08/22 09:17:03;;;;;;;10.07;5.23;;;29.10;99.90;;;;;;5088281;28;20874;-67
2023/08/22 09:19:33;;;;;;;9.93;5.07;;;29.30;99.90;;;;;;5085730;28;20484;-68
2023/08/22 09:22:02;;;;;;;9.33;5.20;;;29.40;99.90;;;;;;5088302;28;20522;-68
2023/08/22 09:24:32;;;;;;;13.80;5.10;;;29.40;99.90;;;;;;5088108;28;20431;-68
2023/08/22 09:27:05;;;;;;;11.67;4.83;;;29.40;99.90;;;;;;5088651;28;20481;-67
2023/08/22 09:29:35;;;;;;;11.40;4.93;;;29.60;99.90;;;;;;5084963;28;20928;-66
2023/08/22 09:32:08;;;;;;;10.17;5.30;;;29.80;99.90;;;;;;5085885;28;20503;-67
2023/08/22 09:34:36;;;;;;;11.30;5.50;;;29.80;99.90;;;;;;5089542;28;20864;-66
2023/08/22 09:37:04;;;;;;;11.40;5.10;;;30.00;99.90;;;;;;5082680;28;20515;-67
2023/08/22 09:39:33;;;;;;;15.07;6.17;;;30.60;99.90;;;;;;5090906;28;20460;-67
2023/08/22 09:42:01;;;;;;;9.70;4.97;;;31.10;99.80;;;;;;5090703;28;20442;-67
2023/08/22 09:44:30;;;;;;;10.23;4.73;;;31.60;99.10;;;;;;5089833;28;20817;-65
2023/08/22 09:46:58;;;;;;;9.43;4.90;;;32.00;96.40;;;;;;5090813;28;20537;-64
2023/08/22 09:49:31;;;;;;;9.53;4.77;;;32.30;95.30;;;;;;5090555;28;20470;-65
2023/08/22 09:52:01;;;;;;;11.03;4.73;;;32.60;94.10;;;;;;5090245;28;20446;-65
2023/08/22 09:54:30;;;;;;;11.10;4.83;;;32.60;93.80;;;;;;5089584;28;20450;-65
2023/08/22 09:56:59;;;;;;;9.30;4.70;;;32.40;92.80;;;;;;5090280;28;20458;-64
2023/08/22 09:59:27;;;;;;;13.40;5.10;;;32.30;92.10;;;;;;5090056;28;20500;-64
2023/08/22 10:01:57;;;;;;;12.07;5.27;;;32.20;93.10;;;;;;5090159;28;20506;-65
2023/08/22 10:04:27;;;;;;;13.13;5.53;;;32.30;91.60;;;;;;5074731;28;20948;-64
2023/08/22 10:06:55;;;;;;;14.80;5.87;;;32.40;91.60;;;;;;5088542;28;20466;-65
2023/08/22 10:09:23;;;;;;;10.30;5.20;;;32.50;91.10;;;;;;5088353;28;20510;-65
2023/08/22 10:11:57;;;;;;;9.93;5.40;;;32.40;89.70;;;;;;5083424;28;20926;-64
2023/08/22 10:14:29;;;;;;;10.20;4.90;;;32.50;89.60;;;;;;5096641;28;20980;-65
2023/08/22 10:16:59;;;;;;;9.70;5.00;;;32.50;88.70;;;;;;5089862;28;20458;-65
2023/08/22 10:19:30;;;;;;;8.87;4.90;;;32.50;89.40;;;;;;5089770;28;21141;-65
2023/08/22 10:22:06;;;;;;;9.93;5.07;;;32.60;91.00;;;;;;5089358;28;20466;-66
2023/08/22 10:24:35;;;;;;;11.43;4.97;;;32.80;89.50;;;;;;5077256;28;20446;-64
2023/08/22 10:27:05;;;;;;;14.03;5.67;;;33.50;84.90;;;;;;5095414;28;20882;-65
2023/08/22 10:29:37;;;;;;;10.00;4.70;;;33.50;83.20;;;;;;5089504;28;20438;-66
2023/08/22 10:32:23;;;;;;;10.73;5.13;;;33.50;84.70;;;;;;5085800;28;20427;-64
2023/08/22 10:35:20;;;;;;;10.43;5.30;;;33.40;82.90;;;;;;5086860;28;20480;-65
2023/08/22 10:37:49;;;;;;;12.50;5.40;;;33.10;82.90;;;;;;5089336;28;20519;-64
2023/08/22 10:40:22;;;;;;;9.83;5.17;;;33.00;83.40;;;;;;5088546;28;21007;-65
2023/08/22 10:43:07;;;;;;;10.63;5.10;;;33.10;81.70;;;;;;5091291;28;20486;-65
2023/08/22 10:45:38;;;;;;;10.50;5.30;;;33.20;80.60;;;;;;5090787;28;20884;-67
2023/08/22 10:48:10;;;;;;;9.00;4.73;;;33.60;79.60;;;;;;5092627;28;20426;-65
2023/08/22 10:50:43;;;;;;;8.90;5.03;;;34.00;77.70;;;;;;5092299;28;20954;-66
2023/08/22 10:53:25;;;;;;;10.40;5.50;;;34.00;75.10;;;;;;5088995;28;20483;-65
2023/08/22 10:55:54;;;;;;;9.50;5.10;;;33.90;75.40;;;;;;5088242;28;20511;-66
2023/08/22 10:58:39;;;;;;;9.50;5.47;;;33.90;73.80;;;;;;5087964;28;20803;-66
2023/08/22 11:01:10;;;;;;;11.53;4.77;;;33.60;76.00;;;;;;5089397;28;20557;-65
2023/08/22 11:03:39;;;;;;;10.07;5.00;;;33.90;76.60;;;;;;5091131;28;20510;-66
2023/08/22 11:06:26;;;;;;;9.80;5.30;;;34.20;74.50;;;;;;5088527;28;20460;-66
2023/08/22 11:08:54;;;;;;;11.57;5.13;;;34.10;72.60;;;;;;5092779;28;20798;-66
2023/08/22 11:11:22;;;;;;;10.40;4.87;;;34.30;73.50;;;;;;5088735;28;20815;-67
2023/08/22 11:13:50;;;;;;;11.27;5.27;;;34.30;72.00;;;;;;5092892;28;20496;-67
2023/08/22 11:16:19;;;;;;;9.73;5.40;;;34.50;71.00;;;;;;5091860;28;20470;-67
2023/08/22 11:18:48;;;;;;;10.67;5.63;;;34.40;71.40;;;;;;5088704;28;20913;-69
2023/08/22 11:21:17;;;;;;;12.27;6.00;;;34.50;69.70;;;;;;5090709;28;21007;-66
2023/08/22 11:23:46;;;;;;;9.47;5.07;;;34.30;68.80;;;;;;5091681;28;21093;-67
2023/08/22 11:26:20;;;;;;;9.80;4.60;;;34.60;67.10;;;;;;5080113;28;20988;-66
2023/08/22 11:28:48;;;;;;;9.50;4.60;;;34.80;64.60;;;;;;5090067;28;20442;-67
2023/08/22 11:31:19;;;;;;;8.30;4.27;;;34.80;66.10;;;;;;5092146;28;20449;-68
2023/08/22 11:33:50;;;;;;;9.97;5.13;;;34.80;64.30;;;;;;5093018;28;20440;-64
2023/08/22 11:36:21;;;;;;;12.40;5.00;;;35.00;62.70;;;;;;5092585;28;20464;-65
2023/08/22 11:38:56;;;;;;;11.60;4.50;;;34.90;61.90;;;;;;5093180;28;20743;-66
2023/08/22 11:41:24;;;;;;;9.07;4.13;;;34.90;60.00;;;;;;5092639;28;20658;-67
2023/08/22 11:43:55;;;;;;;9.10;4.47;;;34.90;61.80;;;;;;5092683;28;20454;-68
2023/08/22 11:46:23;;;;;;;8.00;3.97;;;35.10;61.30;;;;;;5095303;28;20972;-67
2023/08/22 11:48:52;;;;;;;8.50;4.23;;;34.90;59.20;;;;;;5093651;28;20525;-66
2023/08/22 11:51:23;;;;;;;9.57;4.60;;;35.00;60.70;;;;;;5091119;28;20466;-66
2023/08/22 11:53:51;;;;;;;8.40;4.07;;;35.20;60.10;;;;;;5089132;28;20547;-66
2023/08/22 11:56:21;;;;;;;9.37;4.60;;;35.40;58.00;;;;;;5090826;28;20447;-66
2023/08/22 11:58:53;;;;;;;8.60;4.40;;;35.60;59.30;;;;;;5094528;28;20485;-67
2023/08/22 12:01:22;;;;;;;11.10;4.60;;;35.90;58.70;;;;;;5086461;28;20477;-69
2023/08/22 12:03:56;;;;;;;9.03;4.20;;;36.00;57.70;;;;;;5089728;28;20446;-67
2023/08/22 12:06:24;;;;;;;9.03;4.17;;;36.10;56.90;;;;;;5088133;28;20461;-67
2023/08/22 12:08:56;;;;;;;8.57;4.30;;;35.80;57.80;;;;;;5090297;28;20537;-67
2023/08/22 12:11:28;;;;;;;8.67;4.13;;;36.00;55.90;;;;;;5084885;28;20439;-67
2023/08/22 12:13:56;;;;;;;7.90;3.93;;;36.10;56.10;;;;;;5088039;28;20458;-68
2023/08/22 12:16:24;;;;;;;8.33;4.00;;;36.10;55.00;;;;;;5085357;28;20545;-67
2023/08/22 12:18:52;;;;;;;8.90;3.90;;;36.20;55.70;;;;;;5089429;28;20442;-67
2023/08/22 12:21:20;;;;;;;8.43;3.53;;;36.70;55.90;;;;;;5089162;28;20999;-67
2023/08/22 12:23:49;;;;;;;8.80;4.23;;;36.90;54.20;;;;;;5089781;28;20443;-68
2023/08/22 12:26:17;;;;;;;8.20;4.10;;;37.20;53.70;;;;;;5090135;28;20519;-66
2023/08/22 12:28:46;;;;;;;9.67;3.70;;;37.10;53.80;;;;;;5090342;28;20438;-67
2023/08/22 12:31:14;;;;;;;8.93;4.07;;;36.40;53.10;;;;;;5090865;28;20592;-66
2023/08/22 12:33:42;;;;;;;9.83;3.93;;;36.20;54.80;;;;;;5091310;28;20768;-67
2023/08/22 12:36:10;;;;;;;8.10;3.97;;;36.00;54.20;;;;;;5090541;28;20620;-67
2023/08/22 12:38:38;;;;;;;8.57;3.97;;;36.00;55.00;;;;;;5091362;28;20583;-67
2023/08/22 12:41:07;;;;;;;10.73;4.13;;;36.50;53.70;;;;;;5090396;28;20439;-67
2023/08/22 12:43:35;;;;;;;9.77;4.17;;;36.60;53.70;;;;;;5086236;28;20546;-67